createdAt,value
2019-06-01T00:00:11.935Z,8.13
2019-06-01T00:02:38.817Z,6.23
2019-06-01T00:05:08.098Z,5.73
2019-06-01T00:07:37.121Z,5.83
2019-06-01T00:10:08.165Z,5.80
2019-06-01T00:12:37.183Z,6.23
2019-06-01T00:15:09.050Z,5.37
2019-06-01T00:17:38.091Z,5.27
2019-06-01T00:20:07.273Z,5.40
2019-06-01T00:22:36.299Z,7.07
2019-06-01T00:25:06.601Z,5.30
2019-06-01T00:27:35.717Z,5.83
2019-06-01T00:30:08.046Z,5.03
2019-06-01T00:32:37.101Z,6.03
2019-06-01T00:35:06.605Z,5.73
2019-06-01T00:37:36.485Z,5.60
2019-06-01T00:40:07.291Z,6.00
2019-06-01T00:42:36.405Z,5.43
2019-06-01T00:45:09.038Z,5.43
2019-06-01T00:47:38.163Z,5.30
2019-06-01T00:50:08.339Z,5.30
2019-06-01T00:52:37.507Z,5.20
2019-06-01T00:55:06.696Z,6.10
2019-06-01T00:57:36.080Z,5.80
2019-06-01T01:00:09.268Z,5.63
2019-06-01T01:02:38.391Z,5.63
2019-06-01T01:05:12.508Z,6.07
2019-06-01T01:07:41.542Z,6.83
2019-06-01T01:10:10.918Z,6.07
2019-06-01T01:12:57.567Z,6.97
2019-06-01T01:15:26.604Z,5.63
2019-06-01T01:17:56.144Z,5.57
2019-06-01T01:20:25.361Z,5.60
2019-06-01T01:22:54.505Z,5.27
2019-06-01T01:25:23.661Z,5.67
2019-06-01T01:27:52.788Z,6.83
2019-06-01T01:30:21.899Z,14.10
2019-06-01T01:32:51.718Z,22.60
2019-06-01T01:35:21.004Z,7.73
2019-06-01T01:37:50.083Z,14.53
2019-06-01T01:40:19.236Z,11.40
2019-06-01T01:42:48.712Z,14.97
2019-06-01T01:45:17.940Z,11.73
2019-06-01T01:47:46.997Z,8.03
2019-06-01T01:50:16.091Z,8.60
2019-06-01T01:52:45.148Z,7.30
2019-06-01T01:55:14.303Z,9.07
2019-06-01T01:57:43.353Z,8.03
2019-06-01T02:00:13.623Z,8.37
2019-06-01T02:02:43.432Z,8.47
2019-06-01T02:05:13.816Z,9.53
2019-06-01T02:07:43.131Z,7.33
2019-06-01T02:10:12.213Z,7.50
2019-06-01T02:12:41.484Z,9.23
2019-06-01T02:15:10.854Z,7.73
2019-06-01T02:17:39.904Z,8.00
2019-06-01T02:20:09.044Z,8.30
2019-06-01T02:22:38.088Z,6.40
2019-06-01T02:25:07.177Z,8.63
2019-06-01T02:27:36.230Z,6.57
2019-06-01T02:30:08.484Z,6.43
2019-06-01T02:32:37.508Z,6.37
2019-06-01T02:35:07.393Z,7.50
2019-06-01T02:37:36.485Z,6.33
2019-06-01T02:40:08.148Z,5.83
2019-06-01T02:42:37.196Z,6.70
2019-06-01T02:45:11.691Z,8.93
2019-06-01T02:47:41.097Z,6.63
2019-06-01T02:50:11.964Z,6.83
2019-06-01T02:52:41.007Z,7.23
2019-06-01T02:55:15.774Z,6.93
2019-06-01T02:57:44.837Z,7.33
2019-06-01T03:00:16.296Z,6.33
2019-06-01T03:02:46.180Z,6.00
2019-06-01T03:05:15.274Z,6.43
2019-06-01T03:07:46.015Z,6.63
2019-06-01T03:10:15.323Z,7.27
2019-06-01T03:12:45.387Z,7.23
2019-06-01T03:15:15.955Z,6.60
2019-06-01T03:17:49.011Z,7.40
2019-06-01T03:20:18.469Z,6.53
2019-06-01T03:22:50.701Z,6.90
2019-06-01T03:25:19.909Z,6.70
2019-06-01T03:27:51.715Z,7.10
2019-06-01T03:30:29.492Z,6.70
2019-06-01T03:32:58.550Z,6.60
2019-06-01T03:35:27.670Z,7.80
2019-06-01T03:37:56.810Z,7.00
2019-06-01T03:40:25.865Z,10.80
2019-06-01T03:42:54.958Z,6.70
2019-06-01T03:45:23.991Z,7.60
2019-06-01T03:47:53.032Z,6.10
2019-06-01T03:50:22.075Z,6.67
2019-06-01T03:52:51.103Z,7.57
2019-06-01T03:55:20.156Z,6.60
2019-06-01T03:57:49.658Z,6.97
2019-06-01T04:00:18.907Z,6.33
2019-06-01T04:02:48.544Z,7.30
2019-06-01T04:05:17.596Z,7.50
2019-06-01T04:07:46.616Z,7.40
2019-06-01T04:10:16.190Z,6.40
2019-06-01T04:12:45.208Z,7.63
2019-06-01T04:15:16.818Z,6.43
2019-06-01T04:17:45.307Z,6.90
2019-06-01T04:20:14.468Z,6.90
2019-06-01T04:22:43.529Z,6.63
2019-06-01T04:25:12.634Z,7.23
2019-06-01T04:27:41.678Z,8.40
2019-06-01T04:30:11.550Z,6.93
2019-06-01T04:32:49.513Z,6.60
2019-06-01T04:35:11.428Z,7.03
2019-06-01T04:37:40.484Z,10.13
2019-06-01T04:40:09.613Z,7.57
2019-06-01T04:42:38.636Z,6.93
2019-06-01T04:45:09.086Z,7.10
2019-06-01T04:47:38.684Z,7.90
2019-06-01T04:50:08.708Z,7.20
2019-06-01T04:52:37.797Z,8.13
2019-06-01T04:55:08.948Z,8.93
2019-06-01T04:57:38.127Z,7.00
2019-06-01T05:00:24.227Z,7.37
2019-06-01T05:02:40.827Z,7.10
2019-06-01T05:05:11.221Z,6.77
2019-06-01T05:07:40.370Z,8.10
2019-06-01T05:10:09.730Z,7.20
2019-06-01T05:12:38.780Z,7.30
2019-06-01T05:15:10.052Z,6.80
2019-06-01T05:17:39.111Z,6.80
2019-06-01T05:20:08.806Z,6.73
2019-06-01T05:22:37.840Z,7.37
2019-06-01T05:25:08.826Z,7.60
2019-06-01T05:27:38.492Z,7.07
2019-06-01T05:30:09.467Z,8.23
2019-06-01T05:32:38.608Z,7.00
2019-06-01T05:35:07.904Z,7.87
2019-06-01T05:37:36.977Z,6.57
2019-06-01T05:40:08.542Z,6.90
2019-06-01T05:42:37.681Z,7.30
2019-06-01T05:45:09.189Z,8.37
2019-06-01T05:47:38.814Z,6.77
2019-06-01T05:50:10.464Z,7.63
2019-06-01T05:52:39.624Z,7.00
2019-06-01T05:55:08.893Z,7.00
2019-06-01T05:57:37.950Z,8.10
2019-06-01T06:00:12.782Z,7.30
2019-06-01T06:02:42.015Z,6.50
2019-06-01T06:05:12.457Z,7.47
2019-06-01T06:07:41.572Z,7.30
2019-06-01T06:10:11.860Z,7.10
2019-06-01T06:12:40.961Z,7.60
2019-06-01T06:15:11.340Z,7.70
2019-06-01T06:17:40.482Z,7.93
2019-06-01T06:20:09.666Z,9.63
2019-06-01T06:22:41.192Z,8.20
2019-06-01T06:25:09.667Z,7.53
2019-06-01T06:27:38.690Z,8.90
2019-06-01T06:30:08.517Z,8.47
2019-06-01T06:32:37.536Z,7.57
2019-06-01T06:35:06.927Z,9.10
2019-06-01T06:37:35.985Z,6.97
2019-06-01T06:40:07.271Z,7.27
2019-06-01T06:42:36.453Z,6.73
2019-06-01T06:45:06.565Z,6.27
2019-06-01T06:47:35.957Z,6.97
2019-06-01T06:50:06.563Z,7.33
2019-06-01T06:52:35.608Z,6.43
2019-06-01T06:55:06.006Z,7.73
2019-06-01T06:57:35.034Z,9.73
2019-06-01T07:00:06.230Z,6.97
2019-06-01T07:02:35.294Z,5.93
2019-06-01T07:05:06.768Z,7.37
2019-06-01T07:07:35.819Z,6.50
2019-06-01T07:10:05.882Z,7.40
2019-06-01T07:12:34.938Z,5.30
2019-06-01T07:15:05.316Z,5.50
2019-06-01T07:17:34.356Z,5.63
2019-06-01T07:20:04.638Z,5.47
2019-06-01T07:22:33.695Z,5.43
2019-06-01T07:25:02.777Z,7.00
2019-06-01T07:27:32.440Z,5.87
2019-06-01T07:30:01.849Z,4.93
2019-06-01T07:32:30.872Z,9.00
2019-06-01T07:35:01.298Z,7.00
2019-06-01T07:37:30.692Z,5.10
2019-06-01T07:39:59.785Z,6.87
2019-06-01T07:42:29.488Z,9.27
2019-06-01T07:44:58.567Z,5.33
2019-06-01T07:47:27.608Z,6.97
2019-06-01T07:49:56.680Z,3.98
2019-06-01T07:52:26.174Z,4.23
2019-06-01T07:54:55.204Z,4.43
2019-06-01T07:57:25.453Z,4.00
2019-06-01T07:59:54.464Z,4.87
2019-06-01T08:02:26.316Z,3.73
2019-06-01T08:04:54.867Z,3.47
2019-06-01T08:07:24.918Z,4.50
2019-06-01T08:09:54.690Z,4.20
2019-06-01T08:12:23.737Z,4.00
2019-06-01T08:14:52.813Z,5.10
2019-06-01T08:17:22.090Z,4.97
2019-06-01T08:19:52.017Z,3.53
2019-06-01T08:22:21.999Z,2.70
2019-06-01T08:24:51.205Z,2.90
2019-06-01T08:27:20.225Z,5.80
2019-06-01T08:29:49.287Z,2.77
2019-06-01T08:32:18.299Z,3.07
2019-06-01T08:34:47.343Z,2.90
2019-06-01T08:37:16.381Z,2.80
2019-06-01T08:39:45.415Z,4.50
2019-06-01T08:42:14.525Z,2.83
2019-06-01T08:44:43.570Z,2.90
2019-06-01T08:47:12.665Z,4.23
2019-06-01T08:49:41.787Z,3.53
2019-06-01T08:52:10.887Z,3.83
2019-06-01T08:54:39.928Z,2.50
2019-06-01T08:57:09.368Z,3.23
2019-06-01T08:59:38.415Z,2.60
2019-06-01T09:02:07.960Z,3.70
2019-06-01T09:04:37.087Z,3.53
2019-06-01T09:07:06.093Z,3.00
2019-06-01T09:09:35.299Z,8.80
2019-06-01T09:12:04.547Z,5.53
2019-06-01T09:14:33.589Z,2.80
2019-06-01T09:17:02.665Z,3.33
2019-06-01T09:19:31.706Z,3.70
2019-06-01T09:22:00.712Z,3.50
2019-06-01T09:24:29.839Z,2.60
2019-06-01T09:26:58.876Z,3.27
2019-06-01T09:29:27.915Z,3.40
2019-06-01T09:31:56.963Z,4.70
2019-06-01T09:34:26.249Z,4.03
2019-06-01T09:36:55.711Z,3.43
2019-06-01T09:39:24.803Z,3.40
2019-06-01T09:41:53.845Z,6.33
2019-06-01T09:44:22.967Z,3.72
2019-06-01T09:46:52.014Z,3.35
2019-06-01T09:49:21.040Z,2.70
2019-06-01T09:51:50.193Z,3.17
2019-06-01T09:54:19.185Z,3.20
2019-06-01T09:56:48.647Z,3.47
2019-06-01T09:59:17.704Z,5.37
2019-06-01T10:01:47.166Z,3.97
2019-06-01T10:04:16.582Z,3.03
2019-06-01T10:06:45.606Z,3.80
2019-06-01T10:09:14.788Z,5.17
2019-06-01T10:11:43.844Z,4.42
2019-06-01T10:14:13.163Z,4.60
2019-06-01T10:16:43.156Z,3.30
2019-06-01T10:19:12.299Z,5.62
2019-06-01T10:21:42.208Z,3.72
2019-06-01T10:24:11.339Z,3.05
2019-06-01T10:26:41.501Z,3.58
2019-06-01T10:29:10.805Z,3.47
2019-06-01T10:31:41.549Z,2.80
2019-06-01T10:34:10.691Z,3.72
2019-06-01T10:36:40.185Z,3.00
2019-06-01T10:39:09.256Z,4.45
2019-06-01T10:41:39.489Z,3.95
2019-06-01T10:44:08.789Z,3.35
2019-06-01T10:46:38.084Z,2.95
2019-06-01T10:49:07.149Z,2.70
2019-06-01T10:51:36.316Z,4.15
2019-06-01T10:54:05.395Z,4.03
2019-06-01T10:56:34.501Z,3.85
2019-06-01T10:59:03.920Z,3.33
2019-06-01T11:01:34.687Z,3.30
2019-06-01T11:04:03.691Z,3.90
2019-06-01T11:06:40.208Z,3.67
2019-06-01T11:09:05.054Z,3.50
2019-06-01T11:11:35.153Z,3.77
2019-06-01T11:14:04.362Z,3.00
2019-06-01T11:16:33.421Z,3.50
2019-06-01T11:19:02.460Z,2.90
2019-06-01T11:21:31.508Z,3.13
2019-06-01T11:24:00.525Z,2.80
2019-06-01T11:26:29.600Z,3.67
2019-06-01T11:28:58.637Z,2.70
2019-06-01T11:31:27.695Z,3.50
2019-06-01T11:33:56.757Z,4.00
2019-06-01T11:36:25.821Z,2.83
2019-06-01T11:38:54.943Z,4.20
2019-06-01T11:41:23.984Z,2.90
2019-06-01T11:43:52.989Z,2.80
2019-06-01T11:46:22.035Z,3.57
2019-06-01T11:48:51.057Z,2.97
2019-06-01T11:51:20.156Z,4.23
2019-06-01T11:53:49.197Z,3.77
2019-06-01T11:56:18.244Z,3.10
2019-06-01T11:58:47.287Z,2.60
2019-06-01T12:01:16.319Z,5.20
2019-06-01T12:03:46.166Z,3.63
2019-06-01T12:06:15.273Z,2.90
2019-06-01T12:08:44.356Z,2.47
2019-06-01T12:11:13.414Z,4.40
2019-06-01T12:13:42.541Z,2.90
2019-06-01T12:16:11.647Z,2.63
2019-06-01T12:18:40.702Z,2.73
2019-06-01T12:21:10.075Z,2.63
2019-06-01T12:23:39.201Z,2.87
2019-06-01T12:26:08.243Z,2.93
2019-06-01T12:28:37.600Z,2.90
2019-06-01T12:31:06.703Z,5.23
2019-06-01T12:33:35.728Z,5.80
2019-06-01T12:36:06.208Z,3.87
2019-06-01T12:38:37.898Z,3.97
2019-06-01T12:41:07.123Z,2.93
2019-06-01T12:43:36.142Z,3.63
2019-06-01T12:46:07.689Z,3.30
2019-06-01T12:48:35.911Z,2.53
2019-06-01T12:51:05.041Z,3.33
2019-06-01T12:53:34.059Z,5.27
2019-06-01T12:56:03.115Z,2.63
2019-06-01T12:58:32.152Z,2.53
2019-06-01T13:01:02.798Z,2.70
2019-06-01T13:03:31.935Z,2.90
2019-06-01T13:06:00.990Z,3.17
2019-06-01T13:08:30.154Z,3.50
2019-06-01T13:10:59.236Z,2.70
2019-06-01T13:13:28.308Z,3.20
2019-06-01T13:15:57.350Z,3.60
2019-06-01T13:18:26.512Z,2.73
2019-06-01T13:20:55.550Z,2.83
2019-06-01T13:23:24.597Z,4.70
2019-06-01T13:25:53.988Z,2.70
2019-06-01T13:28:37.360Z,3.20
2019-06-01T13:30:53.765Z,3.90
2019-06-01T13:33:23.007Z,3.97
2019-06-01T13:35:52.627Z,2.60
2019-06-01T13:38:21.863Z,3.57
2019-06-01T13:40:51.102Z,2.67
2019-06-01T13:43:20.403Z,3.97
2019-06-01T13:45:49.414Z,3.20
2019-06-01T13:48:18.488Z,3.07
2019-06-01T13:50:47.883Z,3.07
2019-06-01T13:53:17.235Z,4.17
2019-06-01T13:55:46.294Z,2.93
2019-06-01T13:58:15.357Z,4.27
2019-06-01T14:00:44.440Z,4.20
2019-06-01T14:03:13.480Z,2.70
2019-06-01T14:05:42.496Z,2.93
2019-06-01T14:08:27.563Z,3.33
2019-06-01T14:10:42.770Z,3.00
2019-06-01T14:13:11.812Z,2.80
2019-06-01T14:15:40.837Z,3.20
2019-06-01T14:18:09.878Z,3.30
2019-06-01T14:20:38.902Z,2.57
2019-06-01T14:23:07.962Z,2.50
2019-06-01T14:25:36.963Z,4.17
2019-06-01T14:28:06.022Z,5.40
2019-06-01T14:30:35.112Z,3.03
2019-06-01T14:33:04.314Z,2.57
2019-06-01T14:35:35.864Z,2.43
2019-06-01T14:38:04.256Z,2.73
2019-06-01T14:40:33.319Z,3.23
2019-06-01T14:43:02.344Z,2.53
2019-06-01T14:45:31.468Z,2.77
2019-06-01T14:48:00.692Z,2.60
2019-06-01T14:50:29.848Z,3.03
2019-06-01T14:52:59.040Z,2.83
2019-06-01T14:55:28.097Z,2.73
2019-06-01T14:57:58.409Z,2.83
2019-06-01T15:00:27.740Z,2.50
2019-06-01T15:02:58.297Z,2.87
2019-06-01T15:05:27.711Z,2.53
2019-06-01T15:07:57.285Z,2.30
2019-06-01T15:10:27.710Z,2.80
2019-06-01T15:13:02.338Z,2.30
2019-06-01T15:15:27.547Z,3.30
2019-06-01T15:17:57.547Z,3.20
2019-06-01T15:20:26.870Z,6.10
2019-06-01T15:22:56.330Z,2.83
2019-06-01T15:25:25.827Z,2.60
2019-06-01T15:27:54.880Z,3.03
2019-06-01T15:30:25.178Z,2.50
2019-06-01T15:32:54.227Z,4.10
2019-06-01T15:35:23.383Z,3.17
2019-06-01T15:37:57.177Z,2.23
2019-06-01T15:40:23.233Z,2.67
2019-06-01T15:42:53.572Z,3.47
2019-06-01T15:45:22.963Z,2.40
2019-06-01T15:47:53.103Z,3.10
2019-06-01T15:50:22.716Z,2.50
2019-06-01T15:52:52.927Z,3.53
2019-06-01T15:55:22.114Z,2.90
2019-06-01T15:57:52.200Z,3.33
2019-06-01T16:00:21.719Z,3.30
2019-06-01T16:02:50.771Z,3.37
2019-06-01T16:05:19.872Z,2.33
2019-06-01T16:07:48.908Z,4.27
2019-06-01T16:10:18.075Z,2.60
2019-06-01T16:12:47.119Z,3.33
2019-06-01T16:15:16.414Z,3.93
2019-06-01T16:17:45.480Z,2.70
2019-06-01T16:20:14.736Z,2.60
2019-06-01T16:22:43.983Z,3.63
2019-06-01T16:25:13.579Z,3.43
2019-06-01T16:27:42.846Z,3.97
2019-06-01T16:30:12.505Z,2.67
2019-06-01T16:32:41.892Z,3.30
2019-06-01T16:35:11.487Z,3.57
2019-06-01T16:37:40.520Z,2.70
2019-06-01T16:40:11.097Z,2.50
2019-06-01T16:42:40.290Z,2.40
2019-06-01T16:45:10.648Z,2.60
2019-06-01T16:47:39.707Z,3.53
2019-06-01T16:50:10.006Z,2.13
2019-06-01T16:52:39.142Z,3.60
2019-06-01T16:55:13.052Z,2.53
2019-06-01T16:57:42.193Z,3.10
2019-06-01T17:00:12.628Z,2.60
2019-06-01T17:02:41.713Z,2.60
2019-06-01T17:05:12.767Z,2.70
2019-06-01T17:07:41.987Z,2.60
2019-06-01T17:10:25.806Z,3.53
2019-06-01T17:12:43.918Z,2.70
2019-06-01T17:15:14.119Z,3.17
2019-06-01T17:17:43.320Z,2.70
2019-06-01T17:20:39.352Z,3.17
2019-06-01T17:23:24.421Z,2.93
2019-06-01T17:25:40.544Z,3.07
2019-06-01T17:28:10.318Z,4.83
2019-06-01T17:30:39.683Z,2.97
2019-06-01T17:33:08.832Z,4.37
2019-06-01T17:35:38.157Z,2.70
2019-06-01T17:38:09.090Z,3.57
2019-06-01T17:40:42.486Z,4.57
2019-06-01T17:43:09.434Z,2.83
2019-06-01T17:45:38.693Z,2.80
2019-06-01T17:48:23.015Z,3.67
2019-06-01T17:50:38.991Z,3.50
2019-06-01T17:53:08.828Z,3.93
2019-06-01T17:55:39.572Z,2.40
2019-06-01T17:58:09.991Z,3.03
2019-06-01T18:00:40.403Z,3.37
2019-06-01T18:03:10.108Z,2.80
2019-06-01T18:05:39.489Z,4.40
2019-06-01T18:08:08.685Z,3.37
2019-06-01T18:10:52.589Z,3.13
2019-06-01T18:13:10.609Z,3.13
2019-06-01T18:15:39.896Z,2.67
2019-06-01T18:18:10.458Z,4.00
2019-06-01T18:20:40.035Z,2.60
2019-06-01T18:23:10.186Z,2.73
2019-06-01T18:25:40.162Z,3.43
2019-06-01T18:28:15.045Z,2.70
2019-06-01T18:30:40.143Z,2.67
2019-06-01T18:33:09.550Z,3.07
2019-06-01T18:35:38.917Z,2.73
2019-06-01T18:38:08.064Z,3.10
2019-06-01T18:40:37.321Z,2.87
2019-06-01T18:43:10.120Z,3.60
2019-06-01T18:45:39.599Z,3.40
2019-06-01T18:48:10.140Z,3.70
2019-06-01T18:50:39.672Z,2.83
2019-06-01T18:53:10.084Z,2.77
2019-06-01T18:55:39.453Z,2.93
2019-06-01T18:58:08.716Z,2.80
2019-06-01T19:00:40.011Z,5.97
2019-06-01T19:03:09.140Z,3.03
2019-06-01T19:05:38.205Z,3.10
2019-06-01T19:08:07.324Z,3.03
2019-06-01T19:10:36.664Z,2.97
2019-06-01T19:13:07.530Z,3.70
2019-06-01T19:15:36.963Z,3.23
2019-06-01T19:18:06.387Z,4.27
2019-06-01T19:20:35.734Z,4.57
2019-06-01T19:23:06.524Z,4.13
2019-06-01T19:25:35.904Z,4.17
2019-06-01T19:28:06.696Z,3.77
2019-06-01T19:30:38.839Z,3.77
2019-06-01T19:33:10.846Z,4.20
2019-06-01T19:35:40.244Z,4.17
2019-06-01T19:38:11.225Z,4.10
2019-06-01T19:40:41.813Z,6.30
2019-06-01T19:43:11.640Z,4.27
2019-06-01T19:45:40.827Z,4.43
2019-06-01T19:48:12.181Z,4.37
2019-06-01T19:50:41.410Z,4.20
2019-06-01T19:53:10.651Z,4.80
2019-06-01T19:55:40.029Z,7.67
2019-06-01T19:58:10.043Z,6.47
2019-06-01T20:00:39.191Z,5.97
2019-06-01T20:03:08.320Z,5.20
2019-06-01T20:05:37.441Z,5.30
2019-06-01T20:08:06.652Z,6.10
2019-06-01T20:10:35.834Z,4.70
2019-06-01T20:13:05.069Z,6.37
2019-06-01T20:15:34.202Z,5.00
2019-06-01T20:18:03.431Z,5.23
2019-06-01T20:20:32.497Z,5.20
2019-06-01T20:23:01.803Z,5.43
2019-06-01T20:25:30.870Z,4.70
2019-06-01T20:27:59.956Z,5.67
2019-06-01T20:30:29.091Z,6.50
2019-06-01T20:32:58.168Z,5.80
2019-06-01T20:35:27.259Z,11.93
2019-06-01T20:37:56.389Z,8.90
2019-06-01T20:40:25.512Z,19.70
2019-06-01T20:42:54.572Z,11.20
2019-06-01T20:45:23.713Z,16.73
2019-06-01T20:47:52.811Z,15.97
2019-06-01T20:50:22.866Z,18.57
2019-06-01T20:52:52.243Z,9.50
2019-06-01T20:55:21.442Z,31.70
2019-06-01T20:57:50.483Z,5.13
2019-06-01T21:00:20.183Z,27.43
2019-06-01T21:02:49.350Z,11.03
2019-06-01T21:05:18.385Z,7.10
2019-06-01T21:07:47.497Z,19.03
2019-06-01T21:10:18.249Z,14.93
2019-06-01T21:12:47.540Z,7.90
2019-06-01T21:15:17.384Z,7.70
2019-06-01T21:17:49.806Z,6.67
2019-06-01T21:20:24.768Z,12.03
2019-06-01T21:22:48.509Z,6.27
2019-06-01T21:25:18.848Z,7.50
2019-06-01T21:27:48.120Z,6.03
2019-06-01T21:30:20.373Z,5.83
2019-06-01T21:32:49.185Z,4.30
2019-06-01T21:35:19.347Z,5.30
2019-06-01T21:37:48.722Z,5.17
2019-06-01T21:40:19.335Z,4.47
2019-06-01T21:43:01.161Z,7.43
2019-06-01T21:45:19.536Z,9.90
2019-06-01T21:47:48.800Z,8.27
2019-06-01T21:50:19.947Z,7.50
2019-06-01T21:52:49.213Z,7.57
2019-06-01T21:55:18.219Z,7.33
2019-06-01T21:57:47.301Z,5.73
2019-06-01T22:00:26.549Z,6.27
2019-06-01T22:02:56.021Z,5.47
2019-06-01T22:05:25.403Z,7.10
2019-06-01T22:07:54.743Z,9.77
2019-06-01T22:10:23.897Z,7.57
2019-06-01T22:12:53.052Z,7.23
2019-06-01T22:15:22.057Z,6.80
2019-06-01T22:17:51.136Z,6.47
2019-06-01T22:20:20.315Z,8.07
2019-06-01T22:22:49.393Z,9.27
2019-06-01T22:25:20.412Z,8.10
2019-06-01T22:27:49.377Z,7.97
2019-06-01T22:30:20.229Z,9.80
2019-06-01T22:32:49.677Z,8.50
2019-06-01T22:35:18.858Z,8.07
2019-06-01T22:37:48.075Z,10.20
2019-06-01T22:40:19.232Z,14.47
2019-06-01T22:42:48.084Z,9.93
2019-06-01T22:45:18.192Z,11.37
2019-06-01T22:47:47.337Z,7.90
2019-06-01T22:50:16.512Z,9.07
2019-06-01T22:52:45.659Z,13.20
2019-06-01T22:55:15.054Z,9.23
2019-06-01T22:57:44.293Z,8.43
2019-06-01T23:00:15.492Z,8.23
2019-06-01T23:02:44.529Z,7.93
2019-06-01T23:05:14.622Z,8.17
2019-06-01T23:07:43.743Z,7.47
2019-06-01T23:10:13.264Z,7.97
2019-06-01T23:12:42.422Z,8.17
2019-06-01T23:15:11.523Z,6.87
2019-06-01T23:17:40.770Z,7.00
2019-06-01T23:20:10.297Z,7.63
2019-06-01T23:22:39.388Z,8.13
2019-06-01T23:25:09.517Z,6.87
2019-06-01T23:27:38.582Z,6.93
2019-06-01T23:30:08.875Z,7.67
2019-06-01T23:32:37.923Z,5.73
2019-06-01T23:35:07.255Z,7.23
2019-06-01T23:37:36.277Z,7.00
2019-06-01T23:40:06.699Z,6.57
2019-06-01T23:42:35.719Z,7.17
2019-06-01T23:45:08.177Z,6.47
2019-06-01T23:47:37.309Z,6.30
2019-06-01T23:50:07.225Z,5.70
2019-06-01T23:52:36.332Z,5.90
2019-06-01T23:55:07.400Z,5.47
2019-06-01T23:57:36.816Z,6.10
